Terminal Aerodrome Forecast
Issued by NWS

Current Version | Previous Version | Text Only | Print | Product List | Glossary Off
Versions: 1 2 3 4 5 6 7 8 9 10 11 12 13 14 15 16 17 18 19 20 21 22 23 24 25 26 27 28 29 30 31

586
FTUS41 KILN 300542
TAFLCK
TAF
KLCK 300542Z 3006/0106 15007KT P6SM SCT080 OVC100
     FM300900 16004KT P6SM BKN040 OVC090
      TEMPO 3010/3013 P6SM -SHRA BKN020
     FM301600 21008KT P6SM VCSH BKN025
     FM301900 24010G20KT P6SM BKN035
     FM010000 25010KT P6SM SCT040
     FM010500 26009KT P6SM BKN040=

USA.gov is the U.S. government's official web portal to all federal, state and local government web resources and services.